createdAt,value
2018-11-14T00:01:14.731Z,10.30
2018-11-14T00:11:33.358Z,10.23
2018-11-14T00:21:52.142Z,10.06
2018-11-14T00:32:10.836Z,9.83
2018-11-14T00:42:29.653Z,9.65
2018-11-14T00:52:48.258Z,9.69
2018-11-14T01:03:06.925Z,9.31
2018-11-14T01:13:26.097Z,8.80
2018-11-14T01:23:44.712Z,8.82
2018-11-14T01:34:03.489Z,8.54
2018-11-14T01:44:21.999Z,8.19
2018-11-14T01:54:40.889Z,8.34
2018-11-14T02:04:59.658Z,8.06
2018-11-14T02:15:22.282Z,7.82
2018-11-14T02:25:40.721Z,7.74
2018-11-14T02:35:59.556Z,7.78
2018-11-14T02:46:18.116Z,6.41
2018-11-14T02:56:37.413Z,5.85
2018-11-14T03:06:56.096Z,5.65
2018-11-14T03:17:15.833Z,5.17
2018-11-14T03:27:34.835Z,5.00
2018-11-14T03:37:53.879Z,4.87
2018-11-14T03:48:12.644Z,4.20
2018-11-14T03:58:31.956Z,3.95
2018-11-14T04:08:50.982Z,3.61
2018-11-14T04:19:09.516Z,3.72
2018-11-14T04:29:28.474Z,3.83
2018-11-14T04:39:47.166Z,3.57
2018-11-14T04:50:08.191Z,3.69
2018-11-14T05:00:26.857Z,3.83
2018-11-14T05:10:45.404Z,4.31
2018-11-14T05:21:04.552Z,4.49
2018-11-14T05:31:23.409Z,4.08
2018-11-14T05:41:42.524Z,3.80
2018-11-14T05:52:01.250Z,3.51
2018-11-14T06:02:20.243Z,3.29
2018-11-14T06:12:40.329Z,3.20
2018-11-14T06:22:59.087Z,2.98
2018-11-14T06:33:00.161Z,2.80
2018-11-14T06:43:00.352Z,2.77
2018-11-14T06:53:02.010Z,2.72
2018-11-14T07:03:06.335Z,3.19
2018-11-14T07:13:12.761Z,3.77
2018-11-14T07:23:12.962Z,3.89
2018-11-14T07:33:13.007Z,4.31
2018-11-14T07:43:13.143Z,4.49
2018-11-14T07:53:32.600Z,4.89
2018-11-14T08:03:52.326Z,5.18
2018-11-14T08:14:10.989Z,5.73
2018-11-14T08:24:30.013Z,6.76
2018-11-14T08:34:49.157Z,9.99
2018-11-14T08:45:09.485Z,12.04
2018-11-14T08:55:28.204Z,13.77
2018-11-14T09:05:47.049Z,14.84
2018-11-14T09:16:05.731Z,15.16
2018-11-14T09:26:24.533Z,15.48
2018-11-14T09:36:43.168Z,15.31
2018-11-14T09:47:01.865Z,14.94
2018-11-14T09:57:20.605Z,16.80
2018-11-14T10:07:39.439Z,17.91
2018-11-14T10:17:58.159Z,16.16
2018-11-14T10:28:17.151Z,16.06
2018-11-14T10:38:36.216Z,17.06
2018-11-14T10:48:54.916Z,16.29
2018-11-14T10:59:13.549Z,15.63
2018-11-14T11:09:50.714Z,15.75
2018-11-14T11:20:09.744Z,17.55
2018-11-14T11:30:28.241Z,18.55
2018-11-14T11:40:47.651Z,18.70
2018-11-14T11:51:06.343Z,16.93
2018-11-14T12:01:24.964Z,16.96
2018-11-14T12:11:43.784Z,15.66
2018-11-14T12:22:02.767Z,14.24
2018-11-14T12:32:21.707Z,14.33
2018-11-14T12:42:40.366Z,16.16
2018-11-14T12:52:59.629Z,16.76
2018-11-14T13:03:18.610Z,17.97
2018-11-14T13:13:47.482Z,20.27
2018-11-14T13:24:05.928Z,20.33
2018-11-14T13:34:25.269Z,18.89
2018-11-14T13:44:44.767Z,18.16
2018-11-14T13:55:09.257Z,17.93
2018-11-14T14:05:30.499Z,15.16
2018-11-14T14:15:50.759Z,13.30
2018-11-14T14:26:12.442Z,12.64
2018-11-14T14:36:31.478Z,13.03
2018-11-14T14:46:50.127Z,11.83
2018-11-14T14:57:08.888Z,9.22
2018-11-14T15:07:27.490Z,8.36
2018-11-14T15:17:46.177Z,7.98
2018-11-14T15:28:05.225Z,7.45
2018-11-14T15:38:24.289Z,6.97
2018-11-14T15:48:43.150Z,6.12
2018-11-14T15:59:01.951Z,5.66
2018-11-14T16:09:20.612Z,5.04
2018-11-14T16:19:39.476Z,4.66
2018-11-14T16:29:58.356Z,4.11
2018-11-14T16:40:21.315Z,3.84
2018-11-14T16:50:40.441Z,3.49
2018-11-14T17:00:59.195Z,3.30
2018-11-14T17:11:17.952Z,2.95
2018-11-14T17:21:36.803Z,2.74
2018-11-14T17:31:55.369Z,2.53
2018-11-14T17:42:13.999Z,2.33
2018-11-14T17:52:32.525Z,2.19
2018-11-14T18:02:51.214Z,2.08
2018-11-14T18:13:09.819Z,1.77
2018-11-14T18:23:28.414Z,1.65
2018-11-14T18:33:47.233Z,1.50
2018-11-14T18:44:05.990Z,1.29
2018-11-14T18:54:25.273Z,1.17
2018-11-14T19:04:44.346Z,1.03
2018-11-14T19:15:03.882Z,0.89
2018-11-14T19:25:30.195Z,0.69
2018-11-14T19:35:49.442Z,0.71
2018-11-14T19:46:08.713Z,0.57
2018-11-14T19:56:27.656Z,0.44
2018-11-14T20:06:47.004Z,0.32
2018-11-14T20:17:06.125Z,0.20
2018-11-14T20:27:25.374Z,0.14
2018-11-14T20:37:44.828Z,-0.12
2018-11-14T20:48:03.987Z,-0.11
2018-11-14T20:58:23.138Z,-0.14
2018-11-14T21:08:42.467Z,-0.25
2018-11-14T21:19:01.755Z,-0.38
2018-11-14T21:29:21.422Z,-0.45
2018-11-14T21:39:40.758Z,-0.55
2018-11-14T21:50:00.096Z,-0.57
2018-11-14T22:00:31.206Z,-0.64
2018-11-14T22:10:50.183Z,-0.78
2018-11-14T22:21:09.340Z,-0.86
2018-11-14T22:31:28.704Z,-1.02
2018-11-14T22:41:47.727Z,-1.13
2018-11-14T22:52:07.321Z,-1.13
2018-11-14T23:02:26.380Z,-1.19
2018-11-14T23:12:45.845Z,-1.41
2018-11-14T23:23:05.615Z,-1.57
2018-11-14T23:33:27.155Z,-1.55
2018-11-14T23:43:47.621Z,-1.66
2018-11-14T23:54:07.239Z,-1.82
